Manokotak Airport

About
Name: Manokotak Airport
Identifier:  KMO/PAMB
Serves:  Manokotak, Alaska
Owner:  State of Alaska DOT&PF - Central Region
Public/Private:  Public
Local Time:  18. Aug 05:33 AKDT
Description: Manokotak Airport is a state-owned public-use airport located one mile north of the central business district of Manokotak, a city in the Dillingham Census Area of the U.S. state of Alaska.
Source: Wikipedia
Location
Runways
Identifier Length (m/ft) Surface
1/19 2,720/2,720 Gravel
Flights per Day
5 flights
Distance: 32km (20mi)
Punctuality
82% (1 flights per day delayed)
Delay Average: 144 minutes
Current Weather
 13 C (Humidity: 66%)
  9kt (16km/h / 10mph) from 30°
  16km (10 mi.)
 
 METAR PAMB 181256Z AUTO 03009KT 10SM CLR 13/07 A3026 RMK AO2 SLP251 T01330067 $

Current Flights

Departures
Number Departure To Airline
Arrivals
Number Arrival From Airline
 GV412 18:15  Dillingham Grant Aviation
 GV412 18:15  Dillingham Grant Aviation

Current Delays

Departures
N/A
Arrivals
N/A

Destinations

Top Destinations
Airport Flights
per week
Seats
per week
  Anchorage (ANC) 0 - 0 0

Airlines & Planes

Top Airlines
Airline Flights
per Day
Seats
per Day
Alaska Central Express 0 -
Top Plane Types
Model Flights Seats
Beech 1900D 0.0/day - 0